East Harling, United Kingdom
Current Conditions -  °F | °C
As of 7:58 PM on Saturday 25 Oct 2014 (Local Time) from EGUL Reporting Station
Overcast Overcast  
Wind Chill: 13°   Ceiling: 4300
Heat Index: 13°   Visibility: 6mi
Dew Point: 11°   Wind: 14mph
Humidity: 88%   Direction: 210°SSW
Pressure: 30.06"   Gusts: NA
Location:  52.44°N, 0.93°E
Report Text: EGUL 251858Z AUTO 21012KT 9999 OVC043 13/11 A3006 RMK AO2 SLP183 T01340114
Loading
Personal Weather Stations






























Interactive Weather Map
Tropical Storm Tracking
New forecast layout! Learn more

10-Day Weather Forecast

Advertisements
Track Severe Weather on mobile